sensor_id;sensor_type;location;lat;lon;timestamp;temperature;humidity
11454;DHT22;5783;55.174;61.310;2022-12-17T00:01:38;13.80;32.90
11454;DHT22;5783;55.174;61.310;2022-12-17T00:04:26;13.80;32.90
11454;DHT22;5783;55.174;61.310;2022-12-17T00:07:15;13.90;33.10
11454;DHT22;5783;55.174;61.310;2022-12-17T00:10:04;13.80;33.10
11454;DHT22;5783;55.174;61.310;2022-12-17T00:12:52;13.80;33.00
11454;DHT22;5783;55.174;61.310;2022-12-17T00:15:41;13.90;33.20
11454;DHT22;5783;55.174;61.310;2022-12-17T00:18:29;13.90;33.10
11454;DHT22;5783;55.174;61.310;2022-12-17T00:21:18;14.00;33.00
11454;DHT22;5783;55.174;61.310;2022-12-17T00:24:06;14.00;33.00
11454;DHT22;5783;55.174;61.310;2022-12-17T00:26:55;14.00;33.00
11454;DHT22;5783;55.174;61.310;2022-12-17T00:29:43;14.00;33.20
11454;DHT22;5783;55.174;61.310;2022-12-17T00:32:32;14.00;33.20
11454;DHT22;5783;55.174;61.310;2022-12-17T00:35:20;14.00;33.30
11454;DHT22;5783;55.174;61.310;2022-12-17T00:41:18;14.10;33.50
11454;DHT22;5783;55.174;61.310;2022-12-17T00:44:07;14.10;33.40
11454;DHT22;5783;55.174;61.310;2022-12-17T00:46:55;14.10;27.70
11454;DHT22;5783;55.174;61.310;2022-12-17T00:49:44;14.10;27.30
11454;DHT22;5783;55.174;61.310;2022-12-17T00:52:32;14.00;27.30
11454;DHT22;5783;55.174;61.310;2022-12-17T00:55:21;14.00;27.40
11454;DHT22;5783;55.174;61.310;2022-12-17T00:58:09;14.00;27.50
11454;DHT22;5783;55.174;61.310;2022-12-17T01:00:59;14.00;27.50
11454;DHT22;5783;55.174;61.310;2022-12-17T01:03:47;14.10;27.40
11454;DHT22;5783;55.174;61.310;2022-12-17T01:06:36;14.10;27.40
11454;DHT22;5783;55.174;61.310;2022-12-17T01:09:24;14.10;27.40
11454;DHT22;5783;55.174;61.310;2022-12-17T01:12:13;14.10;27.50
11454;DHT22;5783;55.174;61.310;2022-12-17T01:15:01;14.20;27.40
11454;DHT22;5783;55.174;61.310;2022-12-17T01:17:51;14.10;27.40
11454;DHT22;5783;55.174;61.310;2022-12-17T01:20:41;14.20;27.30
11454;DHT22;5783;55.174;61.310;2022-12-17T01:23:30;14.20;27.30
11454;DHT22;5783;55.174;61.310;2022-12-17T01:26:18;14.20;27.40
11454;DHT22;5783;55.174;61.310;2022-12-17T01:29:07;14.20;27.30
11454;DHT22;5783;55.174;61.310;2022-12-17T01:31:55;14.20;27.50
11454;DHT22;5783;55.174;61.310;2022-12-17T01:34:44;14.30;27.40
11454;DHT22;5783;55.174;61.310;2022-12-17T01:37:32;14.30;27.50
11454;DHT22;5783;55.174;61.310;2022-12-17T01:40:20;14.40;27.40
11454;DHT22;5783;55.174;61.310;2022-12-17T01:46:19;14.40;28.50
11454;DHT22;5783;55.174;61.310;2022-12-17T01:49:10;14.50;27.70
11454;DHT22;5783;55.174;61.310;2022-12-17T01:52:00;14.50;27.60
11454;DHT22;5783;55.174;61.310;2022-12-17T01:54:49;14.60;27.70
11454;DHT22;5783;55.174;61.310;2022-12-17T01:57:38;14.60;27.70
11454;DHT22;5783;55.174;61.310;2022-12-17T02:00:27;14.60;27.60
11454;DHT22;5783;55.174;61.310;2022-12-17T02:03:16;14.70;27.70
11454;DHT22;5783;55.174;61.310;2022-12-17T02:09:38;14.70;27.80
11454;DHT22;5783;55.174;61.310;2022-12-17T02:19:07;14.70;28.60
11454;DHT22;5783;55.174;61.310;2022-12-17T02:21:56;14.70;28.70
11454;DHT22;5783;55.174;61.310;2022-12-17T02:25:08;14.70;28.80
11454;DHT22;5783;55.174;61.310;2022-12-17T02:27:55;14.60;28.90
11454;DHT22;5783;55.174;61.310;2022-12-17T02:30:44;14.60;28.90
11454;DHT22;5783;55.174;61.310;2022-12-17T02:33:33;14.70;28.90
11454;DHT22;5783;55.174;61.310;2022-12-17T02:36:21;14.70;28.90
11454;DHT22;5783;55.174;61.310;2022-12-17T02:39:10;14.70;28.90
11454;DHT22;5783;55.174;61.310;2022-12-17T02:41:59;14.70;29.20
11454;DHT22;5783;55.174;61.310;2022-12-17T02:44:47;14.70;29.20
11454;DHT22;5783;55.174;61.310;2022-12-17T02:47:36;14.70;29.30
11454;DHT22;5783;55.174;61.310;2022-12-17T02:50:25;14.70;29.30
11454;DHT22;5783;55.174;61.310;2022-12-17T02:53:13;14.70;29.30
11454;DHT22;5783;55.174;61.310;2022-12-17T02:56:02;14.80;29.50
11454;DHT22;5783;55.174;61.310;2022-12-17T02:58:50;14.70;29.40
11454;DHT22;5783;55.174;61.310;2022-12-17T03:01:39;14.70;29.50
11454;DHT22;5783;55.174;61.310;2022-12-17T03:04:27;14.70;29.60
11454;DHT22;5783;55.174;61.310;2022-12-17T03:07:16;14.70;29.70
11454;DHT22;5783;55.174;61.310;2022-12-17T03:10:05;14.70;29.70
11454;DHT22;5783;55.174;61.310;2022-12-17T03:12:53;14.80;29.80
11454;DHT22;5783;55.174;61.310;2022-12-17T03:15:42;14.80;29.80
11454;DHT22;5783;55.174;61.310;2022-12-17T03:18:30;14.80;29.90
11454;DHT22;5783;55.174;61.310;2022-12-17T03:21:19;14.80;30.90
11454;DHT22;5783;55.174;61.310;2022-12-17T03:24:07;14.90;31.10
11454;DHT22;5783;55.174;61.310;2022-12-17T03:26:56;14.90;35.70
11454;DHT22;5783;55.174;61.310;2022-12-17T03:29:44;15.00;37.00
11454;DHT22;5783;55.174;61.310;2022-12-17T03:32:32;15.00;38.00
11454;DHT22;5783;55.174;61.310;2022-12-17T03:35:21;15.00;35.00
11454;DHT22;5783;55.174;61.310;2022-12-17T03:38:11;15.10;35.00
11454;DHT22;5783;55.174;61.310;2022-12-17T03:40:59;15.00;35.00
11454;DHT22;5783;55.174;61.310;2022-12-17T03:43:48;15.10;35.20
11454;DHT22;5783;55.174;61.310;2022-12-17T03:46:36;15.10;35.40
11454;DHT22;5783;55.174;61.310;2022-12-17T03:49:25;15.10;35.80
11454;DHT22;5783;55.174;61.310;2022-12-17T03:52:13;15.00;35.80
11454;DHT22;5783;55.174;61.310;2022-12-17T03:55:02;15.00;35.80
11454;DHT22;5783;55.174;61.310;2022-12-17T03:57:50;15.00;36.00
11454;DHT22;5783;55.174;61.310;2022-12-17T04:00:39;15.10;36.20
11454;DHT22;5783;55.174;61.310;2022-12-17T04:03:27;15.10;36.20
11454;DHT22;5783;55.174;61.310;2022-12-17T04:06:16;15.20;40.60
11454;DHT22;5783;55.174;61.310;2022-12-17T04:09:04;15.20;41.20
11454;DHT22;5783;55.174;61.310;2022-12-17T04:11:53;15.20;41.60
11454;DHT22;5783;55.174;61.310;2022-12-17T04:14:41;15.30;36.80
11454;DHT22;5783;55.174;61.310;2022-12-17T04:17:30;15.40;33.40
11454;DHT22;5783;55.174;61.310;2022-12-17T04:20:18;15.40;33.00
11454;DHT22;5783;55.174;61.310;2022-12-17T04:23:07;15.40;33.90
11454;DHT22;5783;55.174;61.310;2022-12-17T04:25:55;15.50;36.70
11454;DHT22;5783;55.174;61.310;2022-12-17T04:28:44;15.60;32.70
11454;DHT22;5783;55.174;61.310;2022-12-17T04:31:32;15.70;37.90
11454;DHT22;5783;55.174;61.310;2022-12-17T04:34:20;15.70;44.50
11454;DHT22;5783;55.174;61.310;2022-12-17T04:37:09;15.70;42.60
11454;DHT22;5783;55.174;61.310;2022-12-17T04:39:57;15.80;40.40
11454;DHT22;5783;55.174;61.310;2022-12-17T04:42:46;15.90;37.00
11454;DHT22;5783;55.174;61.310;2022-12-17T04:45:34;16.10;38.30
11454;DHT22;5783;55.174;61.310;2022-12-17T04:48:23;16.00;36.90
11454;DHT22;5783;55.174;61.310;2022-12-17T04:51:11;16.00;36.10
11454;DHT22;5783;55.174;61.310;2022-12-17T04:54:00;15.90;35.90
11454;DHT22;5783;55.174;61.310;2022-12-17T04:56:48;15.70;35.60
11454;DHT22;5783;55.174;61.310;2022-12-17T04:59:37;15.70;35.90
11454;DHT22;5783;55.174;61.310;2022-12-17T05:02:25;15.60;36.40
11454;DHT22;5783;55.174;61.310;2022-12-17T05:05:14;15.70;36.40
11454;DHT22;5783;55.174;61.310;2022-12-17T05:08:02;15.80;35.70
11454;DHT22;5783;55.174;61.310;2022-12-17T05:10:51;15.80;35.40
11454;DHT22;5783;55.174;61.310;2022-12-17T05:13:39;15.90;35.20
11454;DHT22;5783;55.174;61.310;2022-12-17T05:16:28;16.10;34.60
11454;DHT22;5783;55.174;61.310;2022-12-17T05:19:16;16.10;35.40
11454;DHT22;5783;55.174;61.310;2022-12-17T05:22:05;16.30;34.50
11454;DHT22;5783;55.174;61.310;2022-12-17T05:24:53;16.50;27.90
11454;DHT22;5783;55.174;61.310;2022-12-17T05:27:42;16.60;28.30
11454;DHT22;5783;55.174;61.310;2022-12-17T05:30:30;16.50;28.50
11454;DHT22;5783;55.174;61.310;2022-12-17T05:33:19;16.50;28.90
11454;DHT22;5783;55.174;61.310;2022-12-17T05:36:11;16.60;28.60
11454;DHT22;5783;55.174;61.310;2022-12-17T05:38:59;16.50;28.50
11454;DHT22;5783;55.174;61.310;2022-12-17T05:41:47;16.40;28.50
11454;DHT22;5783;55.174;61.310;2022-12-17T05:44:36;16.20;28.80
11454;DHT22;5783;55.174;61.310;2022-12-17T05:47:24;16.10;28.60
11454;DHT22;5783;55.174;61.310;2022-12-17T05:50:13;16.00;28.50
11454;DHT22;5783;55.174;61.310;2022-12-17T05:53:03;15.80;28.70
11454;DHT22;5783;55.174;61.310;2022-12-17T05:55:52;15.70;41.30
11454;DHT22;5783;55.174;61.310;2022-12-17T05:58:41;15.50;34.70
11454;DHT22;5783;55.174;61.310;2022-12-17T06:01:29;15.50;30.40
11454;DHT22;5783;55.174;61.310;2022-12-17T06:04:18;15.40;30.30
11454;DHT22;5783;55.174;61.310;2022-12-17T06:07:06;15.40;29.70
11454;DHT22;5783;55.174;61.310;2022-12-17T06:09:55;15.50;30.90
11454;DHT22;5783;55.174;61.310;2022-12-17T06:12:44;15.60;33.20
11454;DHT22;5783;55.174;61.310;2022-12-17T06:15:34;15.70;32.60
11454;DHT22;5783;55.174;61.310;2022-12-17T06:18:22;15.80;29.80
11454;DHT22;5783;55.174;61.310;2022-12-17T06:21:11;16.00;29.20
11454;DHT22;5783;55.174;61.310;2022-12-17T06:23:59;16.20;34.00
11454;DHT22;5783;55.174;61.310;2022-12-17T06:26:48;16.30;30.20
11454;DHT22;5783;55.174;61.310;2022-12-17T06:29:36;16.30;29.30
11454;DHT22;5783;55.174;61.310;2022-12-17T06:32:25;16.40;28.70
11454;DHT22;5783;55.174;61.310;2022-12-17T06:35:13;16.10;28.50
11454;DHT22;5783;55.174;61.310;2022-12-17T06:38:04;16.00;28.60
11454;DHT22;5783;55.174;61.310;2022-12-17T06:40:53;15.90;28.70
11454;DHT22;5783;55.174;61.310;2022-12-17T06:43:43;15.70;29.80
11454;DHT22;5783;55.174;61.310;2022-12-17T06:46:32;15.60;36.50
11454;DHT22;5783;55.174;61.310;2022-12-17T06:49:20;15.70;34.60
11454;DHT22;5783;55.174;61.310;2022-12-17T06:52:09;15.80;34.10
11454;DHT22;5783;55.174;61.310;2022-12-17T06:54:57;15.80;33.00
11454;DHT22;5783;55.174;61.310;2022-12-17T06:57:46;15.90;32.40
11454;DHT22;5783;55.174;61.310;2022-12-17T07:00:34;15.80;32.40
11454;DHT22;5783;55.174;61.310;2022-12-17T07:03:23;15.80;32.60
11454;DHT22;5783;55.174;61.310;2022-12-17T07:06:11;15.80;32.10
11454;DHT22;5783;55.174;61.310;2022-12-17T07:09:00;15.70;32.00
11454;DHT22;5783;55.174;61.310;2022-12-17T07:11:48;15.70;32.10
11454;DHT22;5783;55.174;61.310;2022-12-17T07:14:37;15.80;32.00
11454;DHT22;5783;55.174;61.310;2022-12-17T07:17:25;15.90;31.80
11454;DHT22;5783;55.174;61.310;2022-12-17T07:20:14;16.00;31.30
11454;DHT22;5783;55.174;61.310;2022-12-17T07:23:02;15.90;32.50
11454;DHT22;5783;55.174;61.310;2022-12-17T07:25:50;15.90;32.20
11454;DHT22;5783;55.174;61.310;2022-12-17T07:28:39;16.00;31.50
11454;DHT22;5783;55.174;61.310;2022-12-17T07:31:27;16.10;31.10
11454;DHT22;5783;55.174;61.310;2022-12-17T07:34:16;16.00;30.40
11454;DHT22;5783;55.174;61.310;2022-12-17T07:37:04;16.10;30.00
11454;DHT22;5783;55.174;61.310;2022-12-17T07:39:53;16.10;30.10
11454;DHT22;5783;55.174;61.310;2022-12-17T07:42:41;16.00;28.90
11454;DHT22;5783;55.174;61.310;2022-12-17T07:45:30;15.90;29.60
11454;DHT22;5783;55.174;61.310;2022-12-17T07:48:18;15.80;30.00
11454;DHT22;5783;55.174;61.310;2022-12-17T07:51:07;15.80;29.90
11454;DHT22;5783;55.174;61.310;2022-12-17T07:53:55;15.80;30.20
11454;DHT22;5783;55.174;61.310;2022-12-17T07:56:44;15.80;31.40
11454;DHT22;5783;55.174;61.310;2022-12-17T07:59:32;15.80;31.50
11454;DHT22;5783;55.174;61.310;2022-12-17T08:02:21;15.80;31.00
11454;DHT22;5783;55.174;61.310;2022-12-17T08:05:09;15.90;30.80
11454;DHT22;5783;55.174;61.310;2022-12-17T08:11:09;16.00;30.30
11454;DHT22;5783;55.174;61.310;2022-12-17T08:13:58;15.90;30.40
11454;DHT22;5783;55.174;61.310;2022-12-17T08:16:46;15.80;30.20
11454;DHT22;5783;55.174;61.310;2022-12-17T08:19:35;15.60;32.70
11454;DHT22;5783;55.174;61.310;2022-12-17T08:22:23;15.50;29.90
11454;DHT22;5783;55.174;61.310;2022-12-17T08:25:11;15.40;29.80
11454;DHT22;5783;55.174;61.310;2022-12-17T08:28:00;15.40;29.40
11454;DHT22;5783;55.174;61.310;2022-12-17T08:30:49;15.30;29.60
11454;DHT22;5783;55.174;61.310;2022-12-17T08:33:38;15.20;29.80
11454;DHT22;5783;55.174;61.310;2022-12-17T08:36:26;15.20;30.00
11454;DHT22;5783;55.174;61.310;2022-12-17T08:39:15;15.20;30.90
11454;DHT22;5783;55.174;61.310;2022-12-17T08:42:03;15.40;30.80
11454;DHT22;5783;55.174;61.310;2022-12-17T08:44:52;15.50;30.30
11454;DHT22;5783;55.174;61.310;2022-12-17T08:47:40;15.50;30.00
11454;DHT22;5783;55.174;61.310;2022-12-17T08:50:29;15.50;29.90
11454;DHT22;5783;55.174;61.310;2022-12-17T08:53:17;15.50;29.70
11454;DHT22;5783;55.174;61.310;2022-12-17T08:56:06;15.50;29.80
11454;DHT22;5783;55.174;61.310;2022-12-17T08:58:54;15.50;29.70
11454;DHT22;5783;55.174;61.310;2022-12-17T09:01:43;15.50;30.20
11454;DHT22;5783;55.174;61.310;2022-12-17T09:04:31;15.60;29.80
11454;DHT22;5783;55.174;61.310;2022-12-17T09:07:22;15.50;29.30
11454;DHT22;5783;55.174;61.310;2022-12-17T09:10:10;15.40;29.50
11454;DHT22;5783;55.174;61.310;2022-12-17T09:13:19;15.50;30.00
11454;DHT22;5783;55.174;61.310;2022-12-17T09:16:07;15.60;29.90
11454;DHT22;5783;55.174;61.310;2022-12-17T09:18:56;15.70;29.80
11454;DHT22;5783;55.174;61.310;2022-12-17T09:21:44;15.70;29.30
11454;DHT22;5783;55.174;61.310;2022-12-17T09:24:33;15.70;29.50
11454;DHT22;5783;55.174;61.310;2022-12-17T09:27:21;15.80;29.30
11454;DHT22;5783;55.174;61.310;2022-12-17T09:30:11;15.70;29.00
11454;DHT22;5783;55.174;61.310;2022-12-17T09:32:59;15.50;29.00
11454;DHT22;5783;55.174;61.310;2022-12-17T09:35:48;15.50;29.20
11454;DHT22;5783;55.174;61.310;2022-12-17T09:38:36;15.60;29.20
11454;DHT22;5783;55.174;61.310;2022-12-17T09:51:31;15.50;28.90
11454;DHT22;5783;55.174;61.310;2022-12-17T09:54:41;15.40;29.50
11454;DHT22;5783;55.174;61.310;2022-12-17T10:00:24;15.80;29.50
11454;DHT22;5783;55.174;61.310;2022-12-17T10:03:15;15.90;29.50
11454;DHT22;5783;55.174;61.310;2022-12-17T10:06:24;15.90;29.30
11454;DHT22;5783;55.174;61.310;2022-12-17T10:09:16;16.00;33.60
11454;DHT22;5783;55.174;61.310;2022-12-17T10:12:25;16.00;31.40
11454;DHT22;5783;55.174;61.310;2022-12-17T10:15:14;15.90;30.90
11454;DHT22;5783;55.174;61.310;2022-12-17T10:18:22;15.70;30.70
11454;DHT22;5783;55.174;61.310;2022-12-17T10:21:11;15.70;30.90
11454;DHT22;5783;55.174;61.310;2022-12-17T10:24:19;15.80;31.00
11454;DHT22;5783;55.174;61.310;2022-12-17T10:27:09;15.90;31.80
11454;DHT22;5783;55.174;61.310;2022-12-17T10:29:57;16.00;32.90
11454;DHT22;5783;55.174;61.310;2022-12-17T10:35:55;16.00;29.40
11454;DHT22;5783;55.174;61.310;2022-12-17T10:38:44;15.90;29.60
11454;DHT22;5783;55.174;61.310;2022-12-17T10:41:34;16.00;29.70
11454;DHT22;5783;55.174;61.310;2022-12-17T10:47:33;16.10;29.80
11454;DHT22;5783;55.174;61.310;2022-12-17T10:50:22;16.10;30.00
11454;DHT22;5783;55.174;61.310;2022-12-17T10:53:31;16.20;29.50
11454;DHT22;5783;55.174;61.310;2022-12-17T10:56:22;16.40;29.50
11454;DHT22;5783;55.174;61.310;2022-12-17T10:59:12;16.40;29.40
11454;DHT22;5783;55.174;61.310;2022-12-17T11:02:02;16.30;29.30
11454;DHT22;5783;55.174;61.310;2022-12-17T11:04:52;16.30;29.60
11454;DHT22;5783;55.174;61.310;2022-12-17T11:07:42;16.40;29.60
11454;DHT22;5783;55.174;61.310;2022-12-17T11:10:31;16.40;29.40
11454;DHT22;5783;55.174;61.310;2022-12-17T11:13:42;16.40;29.20
11454;DHT22;5783;55.174;61.310;2022-12-17T11:16:52;16.50;29.10
11454;DHT22;5783;55.174;61.310;2022-12-17T11:23:13;16.20;28.60
11454;DHT22;5783;55.174;61.310;2022-12-17T11:26:03;16.00;29.00
11454;DHT22;5783;55.174;61.310;2022-12-17T11:28:51;15.80;28.90
11454;DHT22;5783;55.174;61.310;2022-12-17T11:38:37;15.70;29.50
11454;DHT22;5783;55.174;61.310;2022-12-17T11:52:10;15.50;30.40
11454;DHT22;5783;55.174;61.310;2022-12-17T11:58:47;15.40;29.50
11454;DHT22;5783;55.174;61.310;2022-12-17T12:01:58;15.30;29.30
11454;DHT22;5783;55.174;61.310;2022-12-17T12:08:17;15.20;29.20
11454;DHT22;5783;55.174;61.310;2022-12-17T12:34:07;15.20;29.60
11454;DHT22;5783;55.174;61.310;2022-12-17T12:36:55;15.20;29.20
11454;DHT22;5783;55.174;61.310;2022-12-17T12:40:11;15.20;29.30
11454;DHT22;5783;55.174;61.310;2022-12-17T12:47:16;15.20;29.10
11454;DHT22;5783;55.174;61.310;2022-12-17T12:49:34;15.10;29.00
11454;DHT22;5783;55.174;61.310;2022-12-17T12:52:25;15.10;30.40
11454;DHT22;5783;55.174;61.310;2022-12-17T12:55:14;15.10;30.80
11454;DHT22;5783;55.174;61.310;2022-12-17T12:58:05;15.10;30.60
11454;DHT22;5783;55.174;61.310;2022-12-17T13:00:54;15.00;30.20
11454;DHT22;5783;55.174;61.310;2022-12-17T13:06:55;15.10;30.00
11454;DHT22;5783;55.174;61.310;2022-12-17T13:12:38;15.10;29.90
11454;DHT22;5783;55.174;61.310;2022-12-17T13:20:31;15.20;29.70
11454;DHT22;5783;55.174;61.310;2022-12-17T13:29:36;15.20;29.40
11454;DHT22;5783;55.174;61.310;2022-12-17T13:32:27;15.30;29.30
11454;DHT22;5783;55.174;61.310;2022-12-17T13:44:37;15.30;29.00
11454;DHT22;5783;55.174;61.310;2022-12-17T13:46:53;15.30;29.10
11454;DHT22;5783;55.174;61.310;2022-12-17T13:49:25;15.30;29.20
11454;DHT22;5783;55.174;61.310;2022-12-17T13:55:24;15.40;29.20
11454;DHT22;5783;55.174;61.310;2022-12-17T13:57:54;15.40;29.00
11454;DHT22;5783;55.174;61.310;2022-12-17T14:00:26;15.50;28.90
11454;DHT22;5783;55.174;61.310;2022-12-17T14:02:56;15.40;30.50
11454;DHT22;5783;55.174;61.310;2022-12-17T14:05:44;15.50;30.30
11454;DHT22;5783;55.174;61.310;2022-12-17T14:08:16;15.50;30.00
11454;DHT22;5783;55.174;61.310;2022-12-17T14:10:49;15.50;29.90
11454;DHT22;5783;55.174;61.310;2022-12-17T14:13:20;15.50;29.50
11454;DHT22;5783;55.174;61.310;2022-12-17T14:15:50;15.50;29.50
11454;DHT22;5783;55.174;61.310;2022-12-17T14:18:20;15.50;29.50
11454;DHT22;5783;55.174;61.310;2022-12-17T14:20:51;15.50;29.40
11454;DHT22;5783;55.174;61.310;2022-12-17T14:25:54;15.40;29.30
11454;DHT22;5783;55.174;61.310;2022-12-17T14:28:45;15.40;29.40
11454;DHT22;5783;55.174;61.310;2022-12-17T14:34:06;15.40;29.30
11454;DHT22;5783;55.174;61.310;2022-12-17T14:36:38;15.40;29.30
11454;DHT22;5783;55.174;61.310;2022-12-17T14:39:29;15.30;29.20
11454;DHT22;5783;55.174;61.310;2022-12-17T14:45:27;15.30;29.10
11454;DHT22;5783;55.174;61.310;2022-12-17T14:47:59;15.30;29.20
11454;DHT22;5783;55.174;61.310;2022-12-17T14:50:32;15.30;29.20
11454;DHT22;5783;55.174;61.310;2022-12-17T14:53:21;15.20;29.20
11454;DHT22;5783;55.174;61.310;2022-12-17T14:55:36;15.10;29.30
11454;DHT22;5783;55.174;61.310;2022-12-17T15:01:16;15.00;30.50
11454;DHT22;5783;55.174;61.310;2022-12-17T15:03:46;15.00;29.20
11454;DHT22;5783;55.174;61.310;2022-12-17T15:06:17;15.00;30.30
11454;DHT22;5783;55.174;61.310;2022-12-17T15:08:48;15.00;30.80
11454;DHT22;5783;55.174;61.310;2022-12-17T15:11:20;15.10;31.00
11454;DHT22;5783;55.174;61.310;2022-12-17T15:13:49;15.10;31.00
11454;DHT22;5783;55.174;61.310;2022-12-17T15:16:18;15.10;31.10
11454;DHT22;5783;55.174;61.310;2022-12-17T15:18:47;15.10;31.00
11454;DHT22;5783;55.174;61.310;2022-12-17T15:21:17;15.10;31.00
11454;DHT22;5783;55.174;61.310;2022-12-17T15:23:47;15.10;30.90
11454;DHT22;5783;55.174;61.310;2022-12-17T15:26:17;15.10;30.70
11454;DHT22;5783;55.174;61.310;2022-12-17T15:28:46;15.10;30.60
11454;DHT22;5783;55.174;61.310;2022-12-17T15:31:16;15.20;30.50
11454;DHT22;5783;55.174;61.310;2022-12-17T15:33:45;15.20;30.30
11454;DHT22;5783;55.174;61.310;2022-12-17T15:36:14;15.20;30.30
11454;DHT22;5783;55.174;61.310;2022-12-17T15:38:43;15.10;30.20
11454;DHT22;5783;55.174;61.310;2022-12-17T15:41:12;15.20;30.20
11454;DHT22;5783;55.174;61.310;2022-12-17T15:44:01;15.20;30.20
11454;DHT22;5783;55.174;61.310;2022-12-17T15:46:30;15.20;30.50
11454;DHT22;5783;55.174;61.310;2022-12-17T15:48:59;15.20;30.80
11454;DHT22;5783;55.174;61.310;2022-12-17T15:51:29;15.20;30.90
11454;DHT22;5783;55.174;61.310;2022-12-17T15:53:58;15.20;31.00
11454;DHT22;5783;55.174;61.310;2022-12-17T15:56:27;15.20;31.00
11454;DHT22;5783;55.174;61.310;2022-12-17T15:58:57;15.20;31.00
11454;DHT22;5783;55.174;61.310;2022-12-17T16:01:27;15.20;31.00
11454;DHT22;5783;55.174;61.310;2022-12-17T16:03:56;15.20;31.10
11454;DHT22;5783;55.174;61.310;2022-12-17T16:06:26;15.20;31.00
11454;DHT22;5783;55.174;61.310;2022-12-17T16:08:55;15.20;31.00
11454;DHT22;5783;55.174;61.310;2022-12-17T16:11:24;15.20;31.10
11454;DHT22;5783;55.174;61.310;2022-12-17T16:13:54;15.20;31.10
11454;DHT22;5783;55.174;61.310;2022-12-17T16:16:23;15.30;31.20
11454;DHT22;5783;55.174;61.310;2022-12-17T16:18:53;15.30;31.50
11454;DHT22;5783;55.174;61.310;2022-12-17T16:21:22;15.30;31.80
11454;DHT22;5783;55.174;61.310;2022-12-17T16:23:51;15.30;31.30
11454;DHT22;5783;55.174;61.310;2022-12-17T16:26:20;15.30;31.10
11454;DHT22;5783;55.174;61.310;2022-12-17T16:28:49;15.30;31.10
11454;DHT22;5783;55.174;61.310;2022-12-17T16:31:18;15.40;31.20
11454;DHT22;5783;55.174;61.310;2022-12-17T16:33:48;15.40;31.00
11454;DHT22;5783;55.174;61.310;2022-12-17T16:36:19;15.40;30.40
11454;DHT22;5783;55.174;61.310;2022-12-17T16:38:51;15.40;30.10
11454;DHT22;5783;55.174;61.310;2022-12-17T16:41:21;15.50;30.10
11454;DHT22;5783;55.174;61.310;2022-12-17T16:43:50;15.50;30.00
11454;DHT22;5783;55.174;61.310;2022-12-17T16:46:39;15.50;30.00
11454;DHT22;5783;55.174;61.310;2022-12-17T16:49:12;15.50;30.00
11454;DHT22;5783;55.174;61.310;2022-12-17T16:51:43;15.50;29.80
11454;DHT22;5783;55.174;61.310;2022-12-17T16:54:15;15.50;29.80
11454;DHT22;5783;55.174;61.310;2022-12-17T16:56:45;15.50;29.90
11454;DHT22;5783;55.174;61.310;2022-12-17T16:59:16;15.50;29.80
11454;DHT22;5783;55.174;61.310;2022-12-17T17:01:47;15.50;29.50
11454;DHT22;5783;55.174;61.310;2022-12-17T17:04:18;15.50;29.90
11454;DHT22;5783;55.174;61.310;2022-12-17T17:06:51;15.50;30.00
11454;DHT22;5783;55.174;61.310;2022-12-17T17:09:21;15.50;30.00
11454;DHT22;5783;55.174;61.310;2022-12-17T17:14:41;15.50;29.90
11454;DHT22;5783;55.174;61.310;2022-12-17T17:17:10;15.50;29.90
11454;DHT22;5783;55.174;61.310;2022-12-17T17:19:39;15.50;29.90
11454;DHT22;5783;55.174;61.310;2022-12-17T17:22:08;15.40;30.00
11454;DHT22;5783;55.174;61.310;2022-12-17T17:24:37;15.40;30.00
11454;DHT22;5783;55.174;61.310;2022-12-17T17:27:06;15.40;29.90
11454;DHT22;5783;55.174;61.310;2022-12-17T17:29:36;15.40;29.90
11454;DHT22;5783;55.174;61.310;2022-12-17T17:32:05;15.40;30.00
11454;DHT22;5783;55.174;61.310;2022-12-17T17:34:34;15.40;30.00
11454;DHT22;5783;55.174;61.310;2022-12-17T17:37:03;15.40;29.90
11454;DHT22;5783;55.174;61.310;2022-12-17T17:39:32;15.40;30.00
11454;DHT22;5783;55.174;61.310;2022-12-17T17:42:02;15.40;29.90
11454;DHT22;5783;55.174;61.310;2022-12-17T17:44:31;15.40;29.90
11454;DHT22;5783;55.174;61.310;2022-12-17T17:47:00;15.40;29.90
11454;DHT22;5783;55.174;61.310;2022-12-17T17:49:30;15.40;30.00
11454;DHT22;5783;55.174;61.310;2022-12-17T17:51:59;15.40;30.00
11454;DHT22;5783;55.174;61.310;2022-12-17T17:56:59;15.40;30.00
11454;DHT22;5783;55.174;61.310;2022-12-17T17:59:29;15.40;30.00
11454;DHT22;5783;55.174;61.310;2022-12-17T18:01:58;15.40;30.00
11454;DHT22;5783;55.174;61.310;2022-12-17T18:04:27;15.40;30.00
11454;DHT22;5783;55.174;61.310;2022-12-17T18:06:56;15.40;30.00
11454;DHT22;5783;55.174;61.310;2022-12-17T18:09:26;15.50;30.00
11454;DHT22;5783;55.174;61.310;2022-12-17T18:11:55;15.50;30.10
11454;DHT22;5783;55.174;61.310;2022-12-17T18:14:25;15.50;30.20
11454;DHT22;5783;55.174;61.310;2022-12-17T18:16:55;15.50;30.20
11454;DHT22;5783;55.174;61.310;2022-12-17T18:19:24;15.50;30.20
11454;DHT22;5783;55.174;61.310;2022-12-17T18:21:53;15.50;30.00
11454;DHT22;5783;55.174;61.310;2022-12-17T18:24:22;15.60;29.90
11454;DHT22;5783;55.174;61.310;2022-12-17T18:26:52;15.50;30.00
11454;DHT22;5783;55.174;61.310;2022-12-17T18:29:23;15.50;29.80
11454;DHT22;5783;55.174;61.310;2022-12-17T18:31:54;15.50;29.90
11454;DHT22;5783;55.174;61.310;2022-12-17T18:34:24;15.50;29.90
11454;DHT22;5783;55.174;61.310;2022-12-17T18:36:53;15.50;29.90
11454;DHT22;5783;55.174;61.310;2022-12-17T18:39:23;15.60;29.90
11454;DHT22;5783;55.174;61.310;2022-12-17T18:41:53;15.60;29.70
11454;DHT22;5783;55.174;61.310;2022-12-17T18:44:41;15.60;29.70
11454;DHT22;5783;55.174;61.310;2022-12-17T18:47:11;15.50;29.80
11454;DHT22;5783;55.174;61.310;2022-12-17T18:49:40;15.50;29.80
11454;DHT22;5783;55.174;61.310;2022-12-17T18:52:10;15.60;29.90
11454;DHT22;5783;55.174;61.310;2022-12-17T18:54:39;15.60;29.90
11454;DHT22;5783;55.174;61.310;2022-12-17T18:57:08;15.60;29.90
11454;DHT22;5783;55.174;61.310;2022-12-17T18:59:37;15.60;29.90
11454;DHT22;5783;55.174;61.310;2022-12-17T19:04:57;15.60;30.00
11454;DHT22;5783;55.174;61.310;2022-12-17T19:07:26;15.60;30.00
11454;DHT22;5783;55.174;61.310;2022-12-17T19:09:57;15.60;30.10
11454;DHT22;5783;55.174;61.310;2022-12-17T19:12:26;15.60;30.10
11454;DHT22;5783;55.174;61.310;2022-12-17T19:14:55;15.50;30.20
11454;DHT22;5783;55.174;61.310;2022-12-17T19:17:24;15.60;30.10
11454;DHT22;5783;55.174;61.310;2022-12-17T19:19:53;15.60;30.20
11454;DHT22;5783;55.174;61.310;2022-12-17T19:22:23;15.60;30.10
11454;DHT22;5783;55.174;61.310;2022-12-17T19:24:52;15.60;30.10
11454;DHT22;5783;55.174;61.310;2022-12-17T19:27:21;15.70;30.00
11454;DHT22;5783;55.174;61.310;2022-12-17T19:29:51;15.60;30.00
11454;DHT22;5783;55.174;61.310;2022-12-17T19:32:22;15.60;30.00
11454;DHT22;5783;55.174;61.310;2022-12-17T19:34:51;15.60;30.00